Aerodrome Latest Weathers

# Airport/Station Observation Time (Local Time) Wind Visibility (km) Weather Temp. (°C) Dewdrop (°C) Air Pressure (hPa)
Direction (from) Speed (km/h)
1 Maimun Saleh - Sabang 2019-07-19 07:00:00 WIB Barat Daya 25.9 4.0 Udara kabur 25 24 1008
2 Sultan Iskandar Muda - Banda Aceh 2019-07-19 08:00:00 WIB Barat 7.4 7.0 Hujan ringan 25 23 1008
3 Cut Nyak Dien Nagan Raya - Meulaboh, NAD 2019-07-19 08:00:00 WIB Utara 3.7 7.0 Berawan 24 24 1009
4 Malikus Saleh - Lhokseumawe 2019-07-19 08:00:00 WIB Tenang 8.0 Berawan 26 23 1007
5 Binaka - Gunung Sitoli 2019-07-19 08:00:00 WIB Tenang 5.0 Hujan ringan 24 24 1009
6 Kualanamu International Airport - Deli Serdang 2019-07-19 08:00:00 WIB Selatan 5.6 4.5 Halimun 25 25 1007
7 Dr. Ferdinand Lumban Tobing - Pinangsori (Sibolga) 2019-07-19 08:00:00 WIB Barat Daya 1.9 >=10 Cerah - berawan 24 24 1009
8 Aek Godang - Padang Sidempuan 2019-07-19 08:00:00 WIB Barat 9.3 7.0 Hujan ringan 24 22 1010
9 Minangkabau International Airport - Padang 2019-07-19 08:00:00 WIB Utara 7.4 8.0 Berawan 26 24 1008
10 Sultan Syarif Kasim II - Pekanbaru 2019-07-19 08:00:00 WIB Selatan 14.8 8.0 Cerah - berawan 26 21 1008
11 Depati Parbo - Kerinci 2019-07-19 08:00:00 WIB Tenang 5.0 Udara kabur 18 18 1014
12 Japura - Rengat 2019-07-19 08:00:00 WIB Tenang 6.0 Berawan 24 23 1009
13 Fatmawati Sukarno - Bengkulu 2019-07-19 08:00:00 WIB Timur 3.7 2.0 Udara kabur 25 22 1009
14 Raja Haji Abdullah - Tanjung Balai Karimun 2019-07-19 07:00:00 WIB Selatan 3.7 8.0 Berawan 25 24 1008
15 Sultan Thaha - Jambi 2019-07-19 08:00:00 WIB Selatan 9.3 5.0 Cerah - berawan 24 22 1009
16 Hang Nadim - Batam 2019-07-19 08:00:00 WIB Selatan 11.1 >=10 Cerah - berawan 28 24 1011
17 Raja Haji Fisabilillah - Tanjung Pinang 2019-07-19 07:30:00 WIB Tenggara 5.6 >=10 Cerah - berawan 27 24 1009
18 Dabo - Singkep 2019-07-19 08:00:00 WIB Selatan 14.8 9.0 Berawan 28 24 1009
19 Sultan Mahmud Badaruddin II - Palembang 2019-07-19 08:00:00 WIB Barat Daya 7.4 5.0 Cerah - berawan 26 25 1010
20 Radin Inten II - Lampung 2019-07-19 05:30:00 WIB Barat Daya 5.6 6.0 Cerah - berawan 21 19 1009
21 Depati Amir - Pangkal Pinang 2019-07-19 08:00:00 WIB Tenggara 13.0 >=10 Berawan 28 24 1009
22 Budiarto - Curug 2019-07-19 08:00:00 WIB Variabel 3.7 3.4 Udara kabur 25 22 1010
23 Soekarno Hatta - Jakarta 2019-07-19 08:00:00 WIB Barat Daya 7.4 5.0 Udara kabur 27 19 1010
24 Halim Perdana Kusuma - Jakarta 2019-07-19 08:00:00 WIB Barat 5.6 4.0 Udara kabur 27 20 1010
25 Husein Sastranegara - Bandung 2019-07-19 08:00:00 WIB Tenggara 5.6 5.0 Udara kabur 22 18 1015
26 Suryadarma - Kalijati, Subang 2019-07-19 08:00:00 WIB Variabel 3.7 9.0 Berawan 28 21 1010
27 H.A.S. Hanandjoeddin - Tanjung Pandan 2019-07-19 08:00:00 WIB Selatan 7.4 7.0 Berawan 27 25 1009
28 Kertajati 2019-07-19 08:00:00 WIB Selatan 13.0 7.0 Berawan 28 20 1010
29 Wiriadinata - Cibeureum, Tasikmalaya 2019-07-19 07:00:00 WIB Tenang 3.0 Hujan ringan 21 19 1013
30 Ranai - Natuna 2019-07-19 08:00:00 WIB Barat Daya 9.3 4.9 Udara kabur 29 24 1008
31 Tunggul Wulung - Cilacap 2019-07-19 08:00:00 WIB Timur Laut 9.3 5.0 Halimun 25 22 1011
32 Supadio - Pontianak 2019-07-19 08:00:00 WIB Tenggara 7.4 1.2 Halimun 25 25 1009
33 Rahadi Oesman - Ketapang 2019-07-19 08:00:00 WIB Timur 11.1 9.0 Cerah - berawan 26 26 1009
34 Yogyakarta International Airport - Kulonprogo 2019-07-19 08:00:00 WIB Timur 5.6 7.0 Cerah - berawan 24 21 1011
35 Ahmad Yani - Semarang 2019-07-19 08:00:00 WIB Timur 11.1 6.0 Berawan 27 20 1010
36 Tebelian - Sintang 2019-07-19 08:00:00 WIB Tenggara 5.6 6.0 Berawan 26 23 1009
37 Iskandar - Pangkalan Bun 2019-07-19 08:00:00 WIB Timur 11.1 9.0 Berawan 27 24 1009
38 Nanga Pinoh 2019-07-19 07:00:00 WIB Tenang 3.0 Udara kabur 24 22 1009
39 Bawean - Harun Thohir 2019-07-19 08:00:00 WIB Tenggara 22.2 >=10 Berawan 28 23 1008
40 Abdulrachman Saleh - Malang 2019-07-19 07:00:00 WIB Tenang 2.0 Halimun 20 19 1014
41 Juanda - Surabaya 2019-07-19 08:00:00 WIB Tenang 2.5 Udara kabur 26 22 1010
42 Pangsuma - Putussibau 2019-07-19 08:00:00 WIB Tenggara 7.4 >=10 Berawan 27 23 1010
43 Haji Asan - Sampit 2019-07-19 08:00:00 WIB Timur 5.6 7.0 Berawan 26 24 1009
44 Tjilik Riwut - Palangkaraya 2019-07-19 08:00:00 WIB Tenggara 7.4 4.0 Berasap 26 23 1011
45 Banyuwangi 2019-07-19 08:00:00 WIB Timur 14.8 7.0 Berawan 27 23 1012
46 Beringin - Muara Teweh 2019-07-19 08:00:00 WIB Timur Laut 3.7 >=10 Cerah 27 24 1010
47 Sanggu - Buntok 2019-07-19 08:00:00 WIB Tenang >=10 Berawan 26 24 1011
48 H. Hasan Aroeboesman - Ende 2019-07-19 08:00:00 WIB Tenggara 7.4 8.0 Cerah - berawan 26 22 1012
49 Syamsudin Noor - Banjarmasin 2019-07-19 09:00:00 WITA Timur Laut 5.6 8.0 Cerah - berawan 27 24 1009
50 I Gusti Ngurah Rai - Denpasar 2019-07-19 09:00:00 WITA Tenggara 25.9 >=10 Berawan 26 24 1012
51 Yuvai Semaring - Long Bawang 2019-07-19 08:00:00 WITA Barat Daya 7.4 2.0 Berawan 20 19 1017
52 Gusti Sjamsir Alam - Kota Baru 2019-07-19 08:30:00 WITA Barat Laut 3.7 7.0 Berawan 26 25 1010
53 Bandara Internasional Lombok - Praya 2019-07-19 09:00:00 WITA Timur 18.5 8.0 Berawan 27 21 1012
54 Sultan Aji Muhammad Sulaiman - Sepinggan 2019-07-19 09:00:00 WITA Barat 5.6 >=10 Cerah - berawan 28 25 1009
55 Aji Pangeran Tumenggung Pranoto - Samarinda 2019-07-19 09:00:00 WITA Barat Daya 5.6 3.0 Udara kabur 27 25 1010
56 Tanjung Harapan - Tanjung Selor 2019-07-19 09:00:00 WITA Timur 5.6 8.0 Cerah - berawan 29 25 1010
57 Sultan Muhammad Kaharuddin - Sumbawa Besar 2019-07-19 09:00:00 WITA Selatan 11.1 9.0 Berawan 26 21 1011
58 Kalimarau - Tanjung Redeb 2019-07-19 08:00:00 WITA Barat Daya 5.6 1.5 Halimun 26 25 1010
59 Juwata - Tarakan 2019-07-19 09:00:00 WITA Selatan 3.7 >=10 Berawan 29 26 1010
60 Nunukan 2019-07-19 09:00:00 WITA Tenang 7.0 Berawan 27 25 1009
61 Sultan Muhammad Salahuddin - Bima 2019-07-19 09:00:00 WITA Tenang 6.0 Berawan 25 22 1012
62 Tambolaka - Sumba Barat 2019-07-19 09:00:00 WITA Timur 11.1 >=10 Berawan 26 22 1013
63 Sultan Hasanuddin - Makassar 2019-07-19 09:00:00 WITA Tenggara 9.3 >=10 Cerah - berawan 29 23 1009
64 Pongtiku - Tana Toraja 2019-07-19 09:00:00 WITA Tenang 8.0 Berawan 22 20 1011
65 Komodo - Labuan Bajo 2019-07-19 09:00:00 WITA Barat Daya 5.6 >=10 Cerah - berawan 27 21 1013
66 Mutiara SIS Al-Jufri - Palu 2019-07-19 09:00:00 WITA Timur Laut 5.6 9.0 Cerah - berawan 28 23 1011
67 Umbu Mehang Kunda - Waingapu 2019-07-19 09:00:00 WITA Tenang >=10 Berawan 25 21 1013
68 Andi Jemma - Masamba 2019-07-19 09:00:00 WITA Tenang 8.0 Berawan 26 23 1011
69 Frans Sales Lega - Ruteng 2019-07-19 09:00:00 WITA Timur Laut 14.8 8.0 Berawan 21 18 1010
70 Kasiguncu - Poso 2019-07-19 08:00:00 WITA Timur 9.3 >=10 Cerah - berawan 28 23 1010
71 Sultan Bantilan - Toli Toli 2019-07-19 08:00:00 WITA Timur 3.7 >=10 Cerah - berawan 27 25 1008
72 Tardamu - Sabu 2019-07-19 09:00:00 WITA Timur 22.2 >=10 Berawan 28 23 1013
73 Fransiskus Xaverius Seda - Maumere 2019-07-19 09:00:00 WITA Barat Daya 7.4 >=10 Cerah - berawan 28 21 1014
74 Haluoleo - Kendari 2019-07-19 09:00:00 WITA Tenang 8.0 Hujan tiba-tiba di sekitarnya 26 24 1013
75 Beto Ambari - Bau Bau 2019-07-19 09:00:00 WITA Timur 14.8 >=10 Berawan 27 24 1013
76 Djalaluddin - Gorontalo 2019-07-19 09:00:00 WITA Timur 7.4 >=10 Cerah - berawan 28 24 1009
77 Gewayantana - Larantuka 2019-07-19 09:00:00 WITA Timur 5.6 >=10 Cerah - berawan 29 20 1012
78 David Constantijn Saudale - Rote 2019-07-19 09:00:00 WITA Timur 22.2 >=10 Berawan 26 20 1018
79 El Tari - Kupang 2019-07-19 09:00:00 WITA Timur 38.9 >=10 Berawan 27 20 1013
80 Mali - Alor 2019-07-19 09:00:00 WITA Timur 11.1 >=10 Cerah - berawan 27 22 1013
81 A.A. Bere Talo / Atambua 2019-07-19 09:00:00 WITA Tenang >=10 Cerah - berawan 25 18 1014
82 Sam Ratulangi - Manado 2019-07-19 09:00:00 WITA Barat 5.6 >=10 Cerah - berawan 31 21 1009
83 Naha - Tahuna 2019-07-19 08:00:00 WITA Tenggara 7.4 9.0 Berawan 29 25 1009
84 Emalamo - Sanana 2019-07-19 10:00:00 WIT Timur 1.9 9.0 Berawan 30 24 1011
85 Namniwel - Namlea 2019-07-19 10:00:00 WIT Selatan 13.0 >=10 Cerah - berawan 28 24 1009
86 Sultan Babullah - Ternate 2019-07-19 10:00:00 WIT Tenggara 9.3 >=10 Cerah - berawan 28 25 1011
87 Oesman Sadik - Labuha 2019-07-19 10:00:00 WIT Barat Laut 5.6 9.0 Cerah - berawan 28 23 1010
88 Gamar Malamo - Galela 2019-07-19 10:00:00 WIT Tenang >=10 Berawan 29 26 1009
89 Pattimura - Ambon 2019-07-19 10:00:00 WIT Variabel 3.7 9.0 Hujan ringan 26 24 1012
90 Amahai 2019-07-19 10:00:00 WIT Tenggara 7.4 >=10 Cerah - berawan 27 23 1012
91 Bandaneira - Banda 2019-07-19 10:00:00 WIT Selatan 25.9 >=10 Berawan 27 23 1012
92 Domine Eduard Osok - Sorong 2019-07-19 10:00:00 WIT Selatan 16.7 8.0 Berawan 28 25 1010
93 Mathilda Batlayeri - Saumlaki 2019-07-19 10:00:00 WIT Timur 18.5 >=10 Berawan 27 22 1013
94 Torea - Fak Fak 2019-07-19 10:00:00 WIT Selatan 9.3 >=10 Cerah - berawan 26 22 1013
95 Dumatubun - Langgur 2019-07-19 10:00:00 WIT Tenggara 13.0 >=10 Berawan 27 22 1013
96 Utarom - Kaimana 2019-07-19 10:00:00 WIT Tenggara 9.3 7.0 Berawan 27 24 1012
97 Rendani - Manokwari 2019-07-19 10:00:00 WIT Tenggara 5.6 >=10 Cerah - berawan 30 23 1009
98 Douw Aturure - Nabire 2019-07-19 10:00:00 WIT Barat Daya 7.4 >=10 Cerah - berawan 29 22 1009
99 Frans Kaisiepo - Biak 2019-07-19 10:00:00 WIT Barat 9.3 >=10 Cerah - berawan 29 26 1010
100 Enarotali 2019-07-19 10:00:00 WIT Tenang 8.0 Cerah - berawan 19 14 1010
101 Mozes Kilangin - Timika 2019-07-19 08:30:00 WIT Tenang 5.0 Hujan ringan 23 23 1014
102 Mararena / Orai - Sarmi 2019-07-19 09:00:00 WIT Tenang >=10 Cerah - berawan 29 25 1010
103 Wamena 2019-07-19 10:00:00 WIT Tenggara 11.1 >=10 Cerah - berawan 22 15 1021
104 Tanah Merah 2019-07-19 10:00:00 WIT Tenggara 11.1 4.0 Berawan 26 24 1013
105 Mopah - Merauke 2019-07-19 10:00:00 WIT Tenggara 18.5 >=10 Berawan 26 21 1013
106 Sentani - Jayapura 2019-07-19 10:00:00 WIT Selatan 5.6 >=10 Cerah - berawan 31 22 1009

Satellite Images

Wave Height Forecast

Wind Forecast

Forest Fires